Time;durP1;ratioP1;P1;durP2;ratioP2;P2;SDS_P1;SDS_P2;PMS_P1;PMS_P2;Temp;Humidity;BMP_temperature;BMP_pressure;BME280_temperature;BME280_humidity;BME280_pressure;Samples;Min_cycle;Max_cycle;Signal;HPM_P1;HPM_P2
2021/04/17 00:00:08;;;;;;;20.90;9.60;;;3.40;99.90;;;;;;4163957;28;20037;-83
2021/04/17 00:02:10;;;;;;;20.80;10.45;;;3.30;99.90;;;;;;4164470;28;20046;-83
2021/04/17 00:04:14;;;;;;;21.02;10.05;;;3.30;99.90;;;;;;4163565;28;20464;-83
2021/04/17 00:06:14;;;;;;;18.80;10.60;;;3.30;99.90;;;;;;4165632;28;20022;-83
2021/04/17 00:08:15;;;;;;;17.27;10.23;;;3.30;99.90;;;;;;4164111;28;20459;-83
2021/04/17 00:10:16;;;;;;;16.98;9.77;;;3.30;99.90;;;;;;4165187;28;20041;-83
2021/04/17 00:12:19;;;;;;;14.60;9.50;;;3.30;99.90;;;;;;4165025;28;20034;-84
2021/04/17 00:14:29;;;;;;;15.77;9.38;;;3.30;99.90;;;;;;4165129;28;20033;-83
2021/04/17 00:16:29;;;;;;;20.13;9.32;;;3.30;99.90;;;;;;4165273;28;20120;-83
2021/04/17 00:18:30;;;;;;;16.77;9.57;;;3.40;99.90;;;;;;4164956;28;20029;-83
2021/04/17 00:20:30;;;;;;;12.30;9.30;;;3.30;99.90;;;;;;4165189;28;20396;-83
2021/04/17 00:22:31;;;;;;;16.13;10.55;;;3.40;99.90;;;;;;4165102;28;20025;-82
2021/04/17 00:24:32;;;;;;;19.52;8.95;;;3.30;99.90;;;;;;4164462;28;20030;-83
2021/04/17 00:26:34;;;;;;;17.67;9.82;;;3.30;99.90;;;;;;4162679;28;20068;-82
2021/04/17 00:28:35;;;;;;;15.65;9.93;;;3.30;99.90;;;;;;4162566;28;20030;-82
2021/04/17 00:30:35;;;;;;;15.95;9.32;;;3.30;99.90;;;;;;4162344;28;20592;-83
2021/04/17 00:32:36;;;;;;;17.00;9.05;;;3.30;99.90;;;;;;4162334;28;20507;-82
2021/04/17 00:34:36;;;;;;;16.75;8.80;;;3.30;99.90;;;;;;4162212;28;20037;-82
2021/04/17 00:36:37;;;;;;;19.67;9.27;;;3.30;99.90;;;;;;4162436;28;20094;-83
2021/04/17 00:38:38;;;;;;;18.73;9.50;;;3.30;99.90;;;;;;4163631;28;20041;-83
2021/04/17 00:40:38;;;;;;;15.73;9.18;;;3.20;99.90;;;;;;4163336;28;20045;-82
2021/04/17 00:42:39;;;;;;;15.23;9.23;;;3.20;99.90;;;;;;4163436;28;20142;-83
2021/04/17 00:44:40;;;;;;;21.38;9.05;;;3.10;99.90;;;;;;4162665;28;20503;-82
2021/04/17 00:46:41;;;;;;;13.90;9.15;;;3.10;99.90;;;;;;4163064;28;20073;-83
2021/04/17 00:48:42;;;;;;;16.92;10.73;;;3.10;99.90;;;;;;4161407;28;20022;-82
2021/04/17 00:50:43;;;;;;;17.85;10.57;;;3.00;99.90;;;;;;4161847;28;20552;-83
2021/04/17 00:52:44;;;;;;;20.10;9.27;;;3.00;99.90;;;;;;4162251;28;20589;-83
2021/04/17 00:54:45;;;;;;;23.45;9.85;;;2.90;99.90;;;;;;4161647;28;20116;-83
2021/04/17 00:56:46;;;;;;;16.08;9.95;;;2.90;99.90;;;;;;4161632;28;20034;-82
2021/04/17 00:58:47;;;;;;;16.33;9.48;;;2.90;99.90;;;;;;4162910;28;20056;-83
2021/04/17 01:00:48;;;;;;;14.93;9.48;;;2.90;99.90;;;;;;4163074;28;20125;-82
2021/04/17 01:02:57;;;;;;;16.88;10.07;;;2.90;99.90;;;;;;4164568;28;20022;-83
2021/04/17 01:04:59;;;;;;;14.15;8.57;;;2.90;99.90;;;;;;4162948;28;20479;-83
2021/04/17 01:07:26;;;;;;;13.55;8.88;;;2.80;99.90;;;;;;4164368;28;20021;-83
2021/04/17 01:09:34;;;;;;;18.90;9.88;;;2.80;99.90;;;;;;4162990;28;20713;-82
2021/04/17 01:11:40;;;;;;;15.65;8.38;;;2.80;99.90;;;;;;4164335;28;20040;-83
2021/04/17 01:13:42;;;;;;;17.27;9.32;;;2.80;99.90;;;;;;4163109;28;20083;-83
2021/04/17 01:15:45;;;;;;;12.32;8.60;;;2.80;99.90;;;;;;4162937;28;20037;-82
2021/04/17 01:17:52;;;;;;;15.27;8.77;;;2.80;99.90;;;;;;4164172;28;20544;-83
2021/04/17 01:20:08;;;;;;;17.92;9.77;;;2.70;99.90;;;;;;4164595;28;20045;-82
2021/04/17 01:22:20;;;;;;;15.70;9.02;;;2.70;99.90;;;;;;4148211;28;20488;-83
2021/04/17 01:24:24;;;;;;;17.23;8.93;;;2.70;99.90;;;;;;4163167;28;20065;-83
2021/04/17 01:26:25;;;;;;;15.68;9.90;;;2.70;99.90;;;;;;4164160;28;20507;-82
2021/04/17 01:28:29;;;;;;;15.63;8.65;;;2.60;99.90;;;;;;4162731;28;20045;-82
2021/04/17 01:30:30;;;;;;;15.82;9.27;;;2.60;99.90;;;;;;4162552;28;20041;-82
2021/04/17 01:32:31;;;;;;;18.55;9.60;;;2.50;99.90;;;;;;4162874;28;20059;-83
2021/04/17 01:34:32;;;;;;;13.65;8.88;;;2.50;99.90;;;;;;4164096;28;20021;-83
2021/04/17 01:36:35;;;;;;;16.63;8.95;;;2.40;99.90;;;;;;4164152;28;20041;-84
2021/04/17 01:38:51;;;;;;;15.30;8.35;;;2.30;99.90;;;;;;4162960;28;20088;-83
2021/04/17 01:41:06;;;;;;;13.52;7.85;;;2.20;99.90;;;;;;4162555;28;20480;-83
2021/04/17 01:43:07;;;;;;;19.05;9.07;;;2.20;99.90;;;;;;4162076;28;20068;-82
2021/04/17 01:45:08;;;;;;;15.52;9.70;;;2.20;99.90;;;;;;4162173;28;20030;-82
2021/04/17 01:47:12;;;;;;;16.98;8.77;;;2.10;99.90;;;;;;4162049;28;20413;-83
2021/04/17 01:49:15;;;;;;;18.05;9.45;;;2.10;99.90;;;;;;4162130;28;20527;-83
2021/04/17 01:51:16;;;;;;;20.38;9.65;;;2.00;99.90;;;;;;4163977;28;20139;-82
2021/04/17 01:53:21;;;;;;;16.80;8.75;;;2.00;99.90;;;;;;4162317;28;20026;-82
2021/04/17 01:55:23;;;;;;;13.35;8.68;;;1.90;99.90;;;;;;4163464;28;20056;-82
2021/04/17 01:57:26;;;;;;;16.42;8.45;;;1.90;99.90;;;;;;4164120;28;20112;-83
2021/04/17 01:59:29;;;;;;;20.27;9.20;;;1.90;99.90;;;;;;4162104;28;20044;-82
2021/04/17 02:01:30;;;;;;;14.13;8.93;;;1.80;99.90;;;;;;4180395;28;20098;-83
2021/04/17 02:03:30;;;;;;;18.23;9.00;;;1.70;99.90;;;;;;4162162;28;20480;-81
2021/04/17 02:05:31;;;;;;;17.70;8.48;;;1.60;99.90;;;;;;4179542;28;20027;-83
2021/04/17 02:07:31;;;;;;;19.58;9.23;;;1.60;99.90;;;;;;4180012;28;20021;-82
2021/04/17 02:09:32;;;;;;;16.50;9.60;;;1.50;99.90;;;;;;4179893;28;20143;-83
2021/04/17 02:11:33;;;;;;;18.30;9.75;;;1.50;99.90;;;;;;4162277;28;20568;-83
2021/04/17 02:13:35;;;;;;;18.08;9.30;;;1.50;99.90;;;;;;4162125;28;20045;-83
2021/04/17 02:15:37;;;;;;;18.77;10.10;;;1.40;99.90;;;;;;4162309;28;20481;-83
2021/04/17 02:17:50;;;;;;;16.63;9.20;;;1.40;99.90;;;;;;4179654;28;20029;-83
2021/04/17 02:19:59;;;;;;;17.93;9.63;;;1.40;99.90;;;;;;4161911;28;20034;-83
2021/04/17 02:22:00;;;;;;;16.55;9.70;;;1.30;99.90;;;;;;4179753;28;20350;-82
2021/04/17 02:24:02;;;;;;;22.30;9.98;;;1.20;99.90;;;;;;4161633;28;20026;-83
2021/04/17 02:26:04;;;;;;;19.48;9.95;;;1.20;99.90;;;;;;4161984;28;20455;-83
2021/04/17 02:28:06;;;;;;;17.48;9.52;;;1.20;99.90;;;;;;4161992;28;20026;-83
2021/04/17 02:30:07;;;;;;;18.95;10.05;;;1.20;99.90;;;;;;4161855;28;20057;-83
2021/04/17 02:32:15;;;;;;;21.13;11.65;;;1.20;99.90;;;;;;4161643;28;20048;-83
2021/04/17 02:34:18;;;;;;;17.58;9.77;;;1.10;99.90;;;;;;4161988;28;20038;-82
2021/04/17 02:36:18;;;;;;;16.43;9.40;;;1.10;99.90;;;;;;4179534;28;20111;-83
2021/04/17 02:38:19;;;;;;;20.17;9.73;;;1.00;99.90;;;;;;4179593;28;20555;-83
2021/04/17 02:40:20;;;;;;;18.35;10.05;;;0.90;99.90;;;;;;4179114;28;20108;-83
2021/04/17 02:42:20;;;;;;;19.55;10.45;;;0.90;99.90;;;;;;4161487;28;20477;-83
2021/04/17 02:44:21;;;;;;;15.98;9.25;;;0.80;99.90;;;;;;4179665;28;20032;-83
2021/04/17 02:46:21;;;;;;;16.05;10.52;;;0.80;99.90;;;;;;4161626;28;20025;-83
2021/04/17 02:48:22;;;;;;;17.67;8.73;;;0.80;99.90;;;;;;4179330;28;20032;-82
2021/04/17 02:50:23;;;;;;;21.70;10.57;;;0.70;99.90;;;;;;4179064;28;20032;-83
2021/04/17 02:52:23;;;;;;;18.33;9.77;;;0.70;99.90;;;;;;4161629;28;20029;-83
2021/04/17 02:54:24;;;;;;;23.13;11.68;;;0.60;99.90;;;;;;4176695;28;20033;-83
2021/04/17 02:56:25;;;;;;;23.20;11.45;;;0.60;99.90;;;;;;4178909;28;20035;-81
2021/04/17 02:58:25;;;;;;;20.63;10.35;;;0.60;99.90;;;;;;4178425;28;20117;-82
2021/04/17 03:00:26;;;;;;;23.67;9.95;;;0.60;99.90;;;;;;4161017;28;20535;-83
2021/04/17 03:02:27;;;;;;;16.95;10.25;;;0.60;99.90;;;;;;4160859;28;20039;-83
2021/04/17 03:04:28;;;;;;;23.10;10.30;;;0.60;99.90;;;;;;4177714;28;20036;-82
2021/04/17 03:06:28;;;;;;;18.15;10.68;;;0.70;99.90;;;;;;4178026;28;20033;-82
2021/04/17 03:08:30;;;;;;;19.42;10.43;;;0.60;99.90;;;;;;4160894;28;20415;-82
2021/04/17 03:10:31;;;;;;;24.15;15.13;;;0.60;99.90;;;;;;4160935;28;20481;-83
2021/04/17 03:12:32;;;;;;;17.67;10.45;;;0.60;99.90;;;;;;4161402;28;20044;-83
2021/04/17 03:14:32;;;;;;;19.20;9.63;;;0.60;99.90;;;;;;4178857;28;20119;-83
2021/04/17 03:16:33;;;;;;;26.33;11.13;;;0.60;99.90;;;;;;4160988;28;20029;-83
2021/04/17 03:18:34;;;;;;;22.17;10.30;;;0.60;99.90;;;;;;4179359;28;20142;-82
2021/04/17 03:20:34;;;;;;;23.05;11.43;;;0.60;99.90;;;;;;4161550;28;20567;-82
2021/04/17 03:22:36;;;;;;;24.73;11.43;;;0.60;99.90;;;;;;4178955;28;20044;-83
2021/04/17 03:24:37;;;;;;;22.63;10.82;;;0.60;99.90;;;;;;4178836;28;20555;-83
2021/04/17 03:26:38;;;;;;;18.67;10.27;;;0.70;99.90;;;;;;4161140;28;20049;-83
2021/04/17 03:28:38;;;;;;;19.65;10.10;;;0.70;99.90;;;;;;4161141;28;20030;-82
2021/04/17 03:30:39;;;;;;;19.13;9.52;;;0.60;99.90;;;;;;4161074;28;20038;-83
2021/04/17 03:32:41;;;;;;;18.45;10.00;;;0.60;99.90;;;;;;4177726;28;20456;-83
2021/04/17 03:34:41;;;;;;;22.30;10.40;;;0.50;99.90;;;;;;4161308;28;20428;-83
2021/04/17 03:36:42;;;;;;;19.98;11.85;;;0.50;99.90;;;;;;4160829;28;20072;-83
2021/04/17 03:38:42;;;;;;;18.98;10.68;;;0.50;99.90;;;;;;4178238;28;20037;-83
2021/04/17 03:40:43;;;;;;;24.55;11.30;;;0.50;99.90;;;;;;4178238;28;20017;-83
2021/04/17 03:42:43;;;;;;;18.48;10.13;;;0.60;99.90;;;;;;4160287;28;20380;-83
2021/04/17 03:44:44;;;;;;;23.33;10.65;;;0.60;99.90;;;;;;4160821;28;20030;-82
2021/04/17 03:46:45;;;;;;;19.50;10.73;;;0.60;99.90;;;;;;4190382;28;20033;-82
2021/04/17 03:48:46;;;;;;;24.75;11.07;;;0.60;99.90;;;;;;4180085;28;20040;-83
2021/04/17 03:50:46;;;;;;;25.42;12.18;;;0.60;99.90;;;;;;4160003;28;20076;-82
2021/04/17 03:52:47;;;;;;;17.88;10.98;;;0.60;99.90;;;;;;4187087;28;20124;-82
2021/04/17 03:54:49;;;;;;;21.55;11.48;;;0.60;99.90;;;;;;4175166;28;20044;-82
2021/04/17 03:56:49;;;;;;;26.17;12.00;;;0.60;99.90;;;;;;4175498;28;20029;-83
2021/04/17 03:58:50;;;;;;;23.20;11.48;;;0.60;99.90;;;;;;4175081;28;20059;-82
2021/04/17 04:00:51;;;;;;;21.67;11.55;;;0.60;99.90;;;;;;4169276;28;20108;-83
2021/04/17 04:02:51;;;;;;;21.92;12.23;;;0.60;99.90;;;;;;4173192;28;20064;-83
2021/04/17 04:04:52;;;;;;;20.92;10.88;;;0.60;99.90;;;;;;4166137;28;20117;-83
2021/04/17 04:06:53;;;;;;;24.65;11.48;;;0.60;99.90;;;;;;4192325;28;20032;-83
2021/04/17 04:08:53;;;;;;;21.30;11.85;;;0.60;99.90;;;;;;4192196;28;20029;-83
2021/04/17 04:10:54;;;;;;;21.88;11.40;;;0.60;99.90;;;;;;4190229;28;20052;-82
2021/04/17 04:12:55;;;;;;;21.98;11.50;;;0.60;99.90;;;;;;4164233;28;20045;-81
2021/04/17 04:14:55;;;;;;;24.48;12.50;;;0.60;99.90;;;;;;4178359;28;20053;-83
2021/04/17 04:16:56;;;;;;;23.02;12.40;;;0.50;99.90;;;;;;4178533;28;20033;-83
2021/04/17 04:18:57;;;;;;;22.55;11.43;;;0.60;99.90;;;;;;4162010;28;20391;-83
2021/04/17 04:20:57;;;;;;;18.35;11.20;;;0.60;99.90;;;;;;4163955;28;20029;-83
2021/04/17 04:23:00;;;;;;;26.92;12.35;;;0.70;99.90;;;;;;4186343;28;20028;-83
2021/04/17 04:25:02;;;;;;;26.45;11.63;;;0.70;99.90;;;;;;4181301;28;20075;-83
2021/04/17 04:27:03;;;;;;;22.30;10.57;;;0.70;99.90;;;;;;4163506;28;20091;-83
2021/04/17 04:29:04;;;;;;;26.35;12.07;;;0.80;99.90;;;;;;4181085;28;20017;-83
2021/04/17 04:31:05;;;;;;;20.40;11.07;;;0.80;99.90;;;;;;4163873;28;20029;-82
2021/04/17 04:33:06;;;;;;;23.63;11.23;;;0.80;99.90;;;;;;4163715;28;20032;-82
2021/04/17 04:35:08;;;;;;;24.55;13.00;;;0.70;99.90;;;;;;4182654;28;20037;-83
2021/04/17 04:37:08;;;;;;;27.17;12.68;;;0.70;99.90;;;;;;4163924;28;20148;-82
2021/04/17 04:39:09;;;;;;;29.10;12.60;;;0.70;99.90;;;;;;4163562;28;20034;-82
2021/04/17 04:41:10;;;;;;;29.42;12.38;;;0.80;99.90;;;;;;4161783;28;20401;-83
2021/04/17 04:43:11;;;;;;;28.10;12.90;;;0.80;99.90;;;;;;4157335;28;20041;-83
2021/04/17 04:45:13;;;;;;;29.20;13.15;;;0.70;99.90;;;;;;4181433;28;20070;-82
2021/04/17 04:47:13;;;;;;;24.98;13.15;;;0.80;99.90;;;;;;4163262;28;20037;-82
2021/04/17 04:49:14;;;;;;;27.15;13.88;;;0.80;99.90;;;;;;4181048;28;20032;-83
2021/04/17 04:51:15;;;;;;;22.05;13.50;;;0.80;99.90;;;;;;4155051;28;20111;-82
2021/04/17 04:53:15;;;;;;;26.25;12.80;;;0.80;99.90;;;;;;4163360;28;20501;-82
2021/04/17 04:55:16;;;;;;;31.70;14.18;;;0.80;99.90;;;;;;4162159;28;20033;-83
2021/04/17 04:57:17;;;;;;;32.25;13.75;;;0.80;99.90;;;;;;4163247;28;20179;-82
2021/04/17 04:59:18;;;;;;;23.08;13.32;;;0.80;99.90;;;;;;4180918;28;20045;-83
2021/04/17 05:01:18;;;;;;;25.90;14.77;;;0.90;99.90;;;;;;4163047;28;20026;-83
2021/04/17 05:03:19;;;;;;;30.35;14.45;;;0.90;99.90;;;;;;4163072;28;20028;-82
2021/04/17 05:05:20;;;;;;;28.48;15.15;;;0.90;99.90;;;;;;4162793;28;20058;-82
2021/04/17 05:07:20;;;;;;;28.15;15.40;;;0.90;99.90;;;;;;4180799;28;20032;-83
2021/04/17 05:09:21;;;;;;;28.73;15.18;;;0.90;99.90;;;;;;4180900;28;20108;-82
2021/04/17 05:11:22;;;;;;;27.30;16.55;;;0.90;99.90;;;;;;4162992;28;20021;-84
2021/04/17 05:13:22;;;;;;;33.00;15.60;;;0.90;99.90;;;;;;4163101;28;20445;-83
2021/04/17 05:15:23;;;;;;;29.50;14.90;;;1.00;99.90;;;;;;4162963;28;20088;-81
2021/04/17 05:17:23;;;;;;;30.60;13.90;;;1.20;99.90;;;;;;4179607;28;20025;-83
2021/04/17 05:19:25;;;;;;;23.63;13.48;;;1.30;99.90;;;;;;4180748;28;20436;-81
2021/04/17 05:21:26;;;;;;;30.23;14.95;;;1.40;99.90;;;;;;4180682;28;20116;-81
2021/04/17 05:23:26;;;;;;;33.33;15.27;;;1.50;99.90;;;;;;4180728;28;20091;-81
2021/04/17 05:25:27;;;;;;;27.83;15.55;;;1.50;99.90;;;;;;4180805;28;20033;-81
2021/04/17 05:27:28;;;;;;;29.75;15.73;;;1.50;99.90;;;;;;4162646;28;20018;-81
2021/04/17 05:29:29;;;;;;;32.83;16.67;;;1.50;99.90;;;;;;4162698;28;20090;-82
2021/04/17 05:31:30;;;;;;;33.05;15.57;;;1.50;99.90;;;;;;4162889;28;20404;-82
2021/04/17 05:33:31;;;;;;;25.85;15.32;;;1.50;99.90;;;;;;4180500;28;20029;-81
2021/04/17 05:35:33;;;;;;;31.85;14.85;;;1.60;99.90;;;;;;4162966;28;20025;-82
2021/04/17 05:37:34;;;;;;;42.90;16.35;;;1.70;99.90;;;;;;4180162;28;20029;-82
2021/04/17 05:39:34;;;;;;;31.90;16.10;;;1.80;99.90;;;;;;4162702;28;20040;-81
2021/04/17 05:41:35;;;;;;;29.55;16.95;;;1.90;99.90;;;;;;4162699;28;20037;-81
2021/04/17 05:43:36;;;;;;;31.20;17.00;;;2.00;99.90;;;;;;4180509;28;20486;-82
2021/04/17 05:45:36;;;;;;;30.30;16.98;;;2.00;99.90;;;;;;4180225;28;20115;-81
2021/04/17 05:47:37;;;;;;;34.72;16.92;;;2.10;99.90;;;;;;4180184;28;20095;-81
2021/04/17 05:49:37;;;;;;;30.20;17.33;;;2.10;99.90;;;;;;4162474;28;20037;-82
2021/04/17 05:51:40;;;;;;;32.47;17.25;;;2.10;99.90;;;;;;4162388;28;20033;-82
2021/04/17 05:53:42;;;;;;;34.15;17.40;;;2.20;99.90;;;;;;4162419;28;20025;-82
2021/04/17 05:55:43;;;;;;;33.53;17.60;;;2.20;99.90;;;;;;4162281;28;20080;-82
2021/04/17 05:57:43;;;;;;;32.78;18.30;;;2.20;99.90;;;;;;4179587;28;20087;-82
2021/04/17 05:59:44;;;;;;;34.45;17.65;;;2.30;99.90;;;;;;4180124;28;20036;-82
2021/04/17 06:01:44;;;;;;;34.17;17.75;;;2.30;99.90;;;;;;4180233;28;20066;-82
2021/04/17 06:03:45;;;;;;;37.13;18.13;;;2.40;99.90;;;;;;4162502;28;20396;-81
2021/04/17 06:05:46;;;;;;;32.45;19.38;;;2.50;99.90;;;;;;4162117;28;20120;-82
2021/04/17 06:07:47;;;;;;;31.23;17.17;;;2.60;99.90;;;;;;4179802;28;20072;-82
2021/04/17 06:09:47;;;;;;;30.23;18.55;;;2.70;99.90;;;;;;4162005;28;20026;-82
2021/04/17 06:11:48;;;;;;;32.95;18.33;;;2.70;99.90;;;;;;4162288;28;20044;-82
2021/04/17 06:13:50;;;;;;;35.50;18.08;;;2.80;99.90;;;;;;4161893;28;20025;-82
2021/04/17 06:15:51;;;;;;;25.40;16.80;;;2.90;99.90;;;;;;4179840;28;20035;-82
2021/04/17 06:17:52;;;;;;;33.85;18.95;;;3.00;99.90;;;;;;4179609;28;20112;-82
2021/04/17 06:19:52;;;;;;;32.38;19.90;;;3.10;99.90;;;;;;4161661;28;20092;-82
2021/04/17 06:21:53;;;;;;;34.03;18.08;;;3.10;99.90;;;;;;4161931;28;20033;-81
2021/04/17 06:23:53;;;;;;;26.80;18.25;;;3.20;99.90;;;;;;4162332;28;20033;-82
2021/04/17 06:25:54;;;;;;;25.63;16.33;;;3.40;99.90;;;;;;4161944;28;20045;-82
2021/04/17 06:27:55;;;;;;;35.33;17.80;;;3.40;99.90;;;;;;4161806;28;20116;-81
2021/04/17 06:29:55;;;;;;;33.58;17.10;;;3.40;99.90;;;;;;4161811;28;20480;-82
2021/04/17 06:31:56;;;;;;;29.33;16.95;;;3.50;99.90;;;;;;4161445;28;20033;-83
2021/04/17 06:33:56;;;;;;;33.83;16.80;;;3.50;99.90;;;;;;4162016;28;20065;-82
2021/04/17 06:35:58;;;;;;;29.25;17.70;;;3.60;99.90;;;;;;4161683;28;20056;-82
2021/04/17 06:37:59;;;;;;;26.95;15.98;;;3.60;99.90;;;;;;4179545;28;20071;-82
2021/04/17 06:39:59;;;;;;;27.05;16.45;;;3.70;99.90;;;;;;4161706;28;20025;-83
2021/04/17 06:42:06;;;;;;;23.15;14.23;;;3.80;99.90;;;;;;4160898;28;20153;-82
2021/04/17 06:44:08;;;;;;;29.77;14.95;;;4.00;99.90;;;;;;4161306;28;20026;-82
2021/04/17 06:46:12;;;;;;;27.48;14.65;;;4.10;99.90;;;;;;4179653;28;20057;-82
2021/04/17 06:48:15;;;;;;;21.25;13.20;;;4.20;99.90;;;;;;4162043;28;20026;-82
2021/04/17 06:50:18;;;;;;;23.70;13.32;;;4.30;99.90;;;;;;4179237;28;20049;-83
2021/04/17 06:52:22;;;;;;;17.73;13.20;;;4.40;99.90;;;;;;4179308;28;20033;-83
2021/04/17 06:54:25;;;;;;;18.13;12.70;;;4.60;99.90;;;;;;4178304;28;20051;-82
2021/04/17 06:56:26;;;;;;;;;;;4.70;99.90;;;;;;4179825;28;20060;-83
2021/04/17 06:58:27;;;;;;;25.33;11.98;;;4.80;99.90;;;;;;4178976;28;20295;-83
2021/04/17 07:00:28;;;;;;;17.13;11.35;;;4.90;99.90;;;;;;4179340;28;20025;-83
2021/04/17 07:02:29;;;;;;;23.60;11.05;;;5.00;99.90;;;;;;4179107;28;20051;-83
2021/04/17 07:04:31;;;;;;;18.27;10.32;;;5.10;99.90;;;;;;4161236;28;20528;-83
2021/04/17 07:06:32;;;;;;;18.10;9.13;;;5.20;99.90;;;;;;4165309;28;20128;-83
2021/04/17 07:08:32;;;;;;;18.30;8.65;;;5.30;99.90;;;;;;4179279;28;20025;-82
2021/04/17 07:10:33;;;;;;;18.70;8.32;;;5.50;99.90;;;;;;4179150;28;20052;-80
2021/04/17 07:12:34;;;;;;;12.90;9.60;;;5.50;99.90;;;;;;4160678;28;20559;-82
2021/04/17 07:14:48;;;;;;;16.10;7.85;;;5.60;99.90;;;;;;4190927;28;20159;-82
2021/04/17 07:17:05;;;;;;;16.63;7.43;;;5.70;99.90;;;;;;4174978;28;20484;-83
2021/04/17 07:19:06;;;;;;;18.92;8.20;;;5.80;99.90;;;;;;4168665;28;20052;-84
2021/04/17 07:21:15;;;;;;;10.45;6.95;;;5.80;99.90;;;;;;4169361;28;20119;-85
2021/04/17 07:23:31;;;;;;;12.48;7.18;;;5.90;99.90;;;;;;4175437;28;20036;-83
2021/04/17 07:25:31;;;;;;;12.70;6.50;;;6.00;99.90;;;;;;4180658;28;20028;-83
2021/04/17 07:27:40;;;;;;;11.48;6.00;;;6.10;99.90;;;;;;4176251;28;20060;-82
2021/04/17 07:29:44;;;;;;;11.85;5.80;;;6.20;99.90;;;;;;4194046;28;20033;-83
2021/04/17 07:31:55;;;;;;;9.02;7.57;;;6.30;99.90;;;;;;4164009;28;20040;-83
2021/04/17 07:33:57;;;;;;;9.82;5.28;;;6.30;99.90;;;;;;4161556;28;20101;-84
2021/04/17 07:36:01;;;;;;;8.20;6.00;;;6.50;99.90;;;;;;4183247;28;20430;-83
2021/04/17 07:38:16;;;;;;;9.25;5.38;;;6.50;99.90;;;;;;4191887;28;20029;-83
2021/04/17 07:40:23;;;;;;;9.98;5.50;;;6.60;99.90;;;;;;4150664;28;20378;-82
2021/04/17 07:42:35;;;;;;;8.07;5.63;;;6.70;99.90;;;;;;4147174;28;20041;-82
2021/04/17 07:44:46;;;;;;;8.55;4.88;;;6.80;99.90;;;;;;4182706;28;20043;-83
2021/04/17 07:46:47;;;;;;;7.47;4.43;;;6.90;99.90;;;;;;4187817;28;20104;-83
2021/04/17 07:48:48;;;;;;;7.85;4.57;;;7.00;99.90;;;;;;4191283;28;20112;-82
2021/04/17 07:50:49;;;;;;;15.07;5.32;;;7.10;99.90;;;;;;4169071;28;20053;-81
2021/04/17 07:52:50;;;;;;;8.00;4.35;;;7.20;99.90;;;;;;4168726;28;20037;-83
2021/04/17 07:55:00;;;;;;;8.23;3.65;;;7.30;99.90;;;;;;4185874;28;20047;-79
2021/04/17 07:57:09;;;;;;;8.73;4.00;;;7.50;99.90;;;;;;4166400;28;20604;-80
2021/04/17 07:59:10;;;;;;;7.38;4.03;;;7.60;99.90;;;;;;4188281;28;20040;-79
2021/04/17 08:01:10;;;;;;;8.70;4.57;;;7.70;99.90;;;;;;4188186;28;20033;-80
2021/04/17 08:03:12;;;;;;;7.13;3.72;;;7.80;99.90;;;;;;4172093;28;20025;-80
2021/04/17 08:05:14;;;;;;;4.88;3.10;;;7.90;99.90;;;;;;4193435;28;20021;-81
2021/04/17 08:07:15;;;;;;;12.95;4.10;;;8.00;99.90;;;;;;4172767;28;20487;-81
2021/04/17 08:09:17;;;;;;;9.32;3.83;;;8.10;99.90;;;;;;4187503;28;20120;-81
2021/04/17 08:11:25;;;;;;;8.65;3.35;;;8.20;99.90;;;;;;4177725;28;20483;-81
2021/04/17 08:13:26;;;;;;;7.50;4.07;;;8.20;99.90;;;;;;4176771;28;20064;-80
2021/04/17 08:15:27;;;;;;;5.25;3.67;;;8.30;99.90;;;;;;4170552;28;20392;-82
2021/04/17 08:17:29;;;;;;;8.30;4.07;;;8.40;99.90;;;;;;4159856;28;20392;-81
2021/04/17 08:19:29;;;;;;;7.82;3.30;;;8.50;99.90;;;;;;4180290;28;20036;-80
2021/04/17 08:21:30;;;;;;;7.88;3.70;;;8.50;99.90;;;;;;4181138;28;20029;-79
2021/04/17 08:23:32;;;;;;;9.25;3.38;;;8.60;99.90;;;;;;4165006;28;20539;-79
2021/04/17 08:25:34;;;;;;;10.35;4.47;;;8.70;99.90;;;;;;4191865;28;20033;-80
2021/04/17 08:27:35;;;;;;;5.72;3.30;;;8.70;99.90;;;;;;4176011;28;20032;-80
2021/04/17 08:29:44;;;;;;;7.45;3.55;;;8.80;99.90;;;;;;4164360;28;20113;-81
2021/04/17 08:31:45;;;;;;;4.30;2.88;;;8.90;99.90;;;;;;4176529;28;20025;-83
2021/04/17 08:34:14;;;;;;;7.15;3.50;;;9.00;99.90;;;;;;4163659;28;20029;-82
2021/04/17 08:36:31;;;;;;;11.23;3.85;;;9.10;99.90;;;;;;4167059;28;20132;-80
2021/04/17 08:38:36;;;;;;;4.75;3.33;;;9.20;99.90;;;;;;4160445;28;20520;-81
2021/04/17 08:40:36;;;;;;;4.80;3.50;;;9.40;99.90;;;;;;4159109;28;20036;-81
2021/04/17 08:42:47;;;;;;;8.45;3.50;;;9.50;99.90;;;;;;4171808;28;20049;-81
2021/04/17 08:44:48;;;;;;;5.88;3.33;;;9.60;99.90;;;;;;4170184;28;20056;-79
2021/04/17 08:46:49;;;;;;;5.35;3.75;;;9.60;99.90;;;;;;4179033;28;20033;-80
2021/04/17 08:48:55;;;;;;;7.72;3.72;;;9.80;99.90;;;;;;4175911;28;20095;-79
2021/04/17 08:51:21;;;;;;;5.65;4.82;;;10.00;99.90;;;;;;4174300;28;20033;-81
2021/04/17 08:53:23;;;;;;;5.88;3.13;;;10.00;99.90;;;;;;4178468;28;20048;-79
2021/04/17 08:55:26;;;;;;;6.13;3.65;;;10.10;99.90;;;;;;4159414;28;20041;-80
2021/04/17 08:57:27;;;;;;;;;;;10.20;99.90;;;;;;4162851;28;20068;-80
2021/04/17 08:59:38;;;;;;;10.38;3.63;;;10.30;99.90;;;;;;4185268;28;19921;-79
2021/04/17 09:01:40;;;;;;;7.05;4.07;;;10.30;99.90;;;;;;4186459;28;20129;-79
2021/04/17 09:03:45;;;;;;;10.35;4.10;;;10.30;99.90;;;;;;4186218;28;20033;-80
2021/04/17 09:05:46;;;;;;;7.80;3.25;;;10.40;99.90;;;;;;4179920;28;20033;-81
2021/04/17 09:07:47;;;;;;;10.45;4.10;;;10.60;99.90;;;;;;4180813;28;20036;-82
2021/04/17 09:09:48;;;;;;;5.25;4.07;;;10.90;99.90;;;;;;4162850;28;20405;-82
2021/04/17 09:11:54;;;;;;;5.95;3.60;;;11.10;99.90;;;;;;4163290;28;20040;-82
2021/04/17 09:13:54;;;;;;;14.68;4.00;;;11.10;99.90;;;;;;4163753;28;20033;-82
2021/04/17 09:15:56;;;;;;;7.00;3.63;;;11.20;99.90;;;;;;4164675;28;20076;-82
2021/04/17 09:17:57;;;;;;;9.82;4.20;;;11.30;99.90;;;;;;4170868;28;20106;-81
2021/04/17 09:19:59;;;;;;;6.60;3.05;;;11.30;99.90;;;;;;4172734;28;20029;-82
2021/04/17 09:21:59;;;;;;;9.88;4.10;;;11.30;99.90;;;;;;4171985;28;20030;-82
2021/04/17 09:24:01;;;;;;;6.85;3.50;;;11.50;99.90;;;;;;4174272;28;20043;-82
2021/04/17 09:26:02;;;;;;;4.20;3.30;;;11.60;99.90;;;;;;4179198;28;20060;-81
2021/04/17 09:28:03;;;;;;;5.45;3.15;;;11.60;99.90;;;;;;4173258;28;20027;-82
2021/04/17 09:30:12;;;;;;;8.25;3.80;;;11.60;99.90;;;;;;4174233;28;20089;-82
2021/04/17 09:32:13;;;;;;;7.80;4.22;;;11.60;99.90;;;;;;4169996;28;20037;-81
2021/04/17 09:34:16;;;;;;;6.93;3.60;;;11.70;99.90;;;;;;4166953;28;20078;-81
2021/04/17 09:36:21;;;;;;;6.63;3.90;;;11.90;99.90;;;;;;4193092;28;20024;-83
2021/04/17 09:38:23;;;;;;;13.02;4.05;;;12.30;99.90;;;;;;4194059;28;20036;-82
2021/04/17 09:40:40;;;;;;;10.10;3.42;;;12.40;99.90;;;;;;4173824;28;20052;-82
2021/04/17 09:42:41;;;;;;;7.82;3.65;;;12.60;99.90;;;;;;4166691;28;20076;-82
2021/04/17 09:44:47;;;;;;;8.80;4.32;;;12.60;99.90;;;;;;4180291;28;20077;-82
2021/04/17 09:47:08;;;;;;;7.15;4.85;;;12.50;99.90;;;;;;4161900;28;20033;-82
2021/04/17 09:49:09;;;;;;;6.97;3.88;;;12.70;99.90;;;;;;4165186;28;20049;-82
2021/04/17 09:51:22;;;;;;;7.35;4.03;;;12.70;99.90;;;;;;4162053;28;20377;-80
2021/04/17 09:53:29;;;;;;;13.32;4.88;;;12.90;99.90;;;;;;4163059;28;20064;-80
2021/04/17 09:55:30;;;;;;;7.90;4.03;;;13.10;99.90;;;;;;4179856;28;20120;-81
2021/04/17 09:57:31;;;;;;;7.00;4.05;;;13.10;99.90;;;;;;4160936;28;20034;-80
2021/04/17 09:59:32;;;;;;;10.30;3.92;;;13.20;99.90;;;;;;4162532;28;20032;-81
2021/04/17 10:01:33;;;;;;;9.93;4.68;;;13.30;99.90;;;;;;4179959;28;20039;-81
2021/04/17 10:03:37;;;;;;;6.97;4.05;;;13.40;99.90;;;;;;4179673;28;20055;-79
2021/04/17 10:05:38;;;;;;;6.63;3.63;;;13.50;99.90;;;;;;4161172;28;20045;-80
2021/04/17 10:07:49;;;;;;;9.38;4.30;;;13.70;99.90;;;;;;4179564;28;20025;-81
2021/04/17 10:10:06;;;;;;;8.27;3.97;;;14.30;99.90;;;;;;4160643;28;20037;-80
2021/04/17 10:12:08;;;;;;;7.00;4.35;;;14.70;99.90;;;;;;4161853;28;20036;-81
2021/04/17 10:14:11;;;;;;;7.90;4.15;;;14.80;99.90;;;;;;4189987;28;20031;-81
2021/04/17 10:16:14;;;;;;;8.65;4.47;;;14.50;99.90;;;;;;4187936;28;20017;-81
2021/04/17 10:18:14;;;;;;;9.13;4.28;;;14.30;99.90;;;;;;4174520;28;20017;-81
2021/04/17 10:20:15;;;;;;;6.65;3.63;;;14.30;99.90;;;;;;4164018;28;20049;-83
2021/04/17 10:22:20;;;;;;;7.18;4.10;;;14.20;99.90;;;;;;4184662;28;20391;-81
2021/04/17 10:24:33;;;;;;;12.50;4.72;;;14.50;99.90;;;;;;4169190;28;20087;-82
2021/04/17 10:26:33;;;;;;;9.25;4.28;;;14.80;99.90;;;;;;4162504;28;20041;-81
2021/04/17 10:28:36;;;;;;;8.48;4.15;;;14.50;99.90;;;;;;4175410;28;20484;-81
2021/04/17 10:30:38;;;;;;;7.07;3.70;;;14.10;99.90;;;;;;4175780;28;20043;-82
2021/04/17 10:32:39;;;;;;;7.50;4.95;;;14.10;99.90;;;;;;4162233;28;20038;-81
2021/04/17 10:34:42;;;;;;;7.85;4.05;;;14.40;99.90;;;;;;4182380;28;20129;-80